sensor_id;sensor_type;location;lat;lon;timestamp;P1;durP1;ratioP1;P2;durP2;ratioP2
59147;SDS011;44930;52.878;6.168;2024-02-23T00:01:43;2.10;;;0.30;;
59147;SDS011;44930;52.878;6.168;2024-02-23T00:04:09;0.93;;;0.22;;
59147;SDS011;44930;52.878;6.168;2024-02-23T00:06:35;2.75;;;0.32;;
59147;SDS011;44930;52.878;6.168;2024-02-23T00:09:00;2.25;;;0.60;;
59147;SDS011;44930;52.878;6.168;2024-02-23T00:11:26;5.22;;;0.70;;
59147;SDS011;44930;52.878;6.168;2024-02-23T00:13:57;0.93;;;0.40;;
59147;SDS011;44930;52.878;6.168;2024-02-23T00:16:22;2.80;;;0.50;;
59147;SDS011;44930;52.878;6.168;2024-02-23T00:18:48;2.33;;;0.38;;
59147;SDS011;44930;52.878;6.168;2024-02-23T00:21:14;2.97;;;0.40;;
59147;SDS011;44930;52.878;6.168;2024-02-23T00:23:40;3.55;;;0.40;;
59147;SDS011;44930;52.878;6.168;2024-02-23T00:26:05;1.40;;;0.38;;
59147;SDS011;44930;52.878;6.168;2024-02-23T00:28:32;2.03;;;0.30;;
59147;SDS011;44930;52.878;6.168;2024-02-23T00:30:58;1.33;;;0.38;;
59147;SDS011;44930;52.878;6.168;2024-02-23T00:33:24;2.10;;;0.40;;
59147;SDS011;44930;52.878;6.168;2024-02-23T00:35:49;1.10;;;0.10;;
59147;SDS011;44930;52.878;6.168;2024-02-23T00:38:15;3.00;;;0.45;;
59147;SDS011;44930;52.878;6.168;2024-02-23T00:40:41;0.63;;;0.28;;
59147;SDS011;44930;52.878;6.168;2024-02-23T00:43:06;1.10;;;0.30;;
59147;SDS011;44930;52.878;6.168;2024-02-23T00:45:32;0.90;;;0.60;;
59147;SDS011;44930;52.878;6.168;2024-02-23T00:47:58;5.47;;;1.50;;
59147;SDS011;44930;52.878;6.168;2024-02-23T00:50:24;5.63;;;1.40;;
59147;SDS011;44930;52.878;6.168;2024-02-23T00:52:51;3.88;;;0.60;;
59147;SDS011;44930;52.878;6.168;2024-02-23T00:55:17;3.20;;;0.73;;
59147;SDS011;44930;52.878;6.168;2024-02-23T00:57:43;3.00;;;0.82;;
59147;SDS011;44930;52.878;6.168;2024-02-23T01:00:10;9.80;;;2.63;;
59147;SDS011;44930;52.878;6.168;2024-02-23T01:02:36;5.63;;;1.10;;
59147;SDS011;44930;52.878;6.168;2024-02-23T01:05:03;5.00;;;1.27;;
59147;SDS011;44930;52.878;6.168;2024-02-23T01:07:29;13.45;;;1.77;;
59147;SDS011;44930;52.878;6.168;2024-02-23T01:09:54;7.05;;;1.20;;
59147;SDS011;44930;52.878;6.168;2024-02-23T01:12:20;8.75;;;1.95;;
59147;SDS011;44930;52.878;6.168;2024-02-23T01:14:46;7.78;;;1.40;;
59147;SDS011;44930;52.878;6.168;2024-02-23T01:17:13;8.63;;;2.25;;
59147;SDS011;44930;52.878;6.168;2024-02-23T01:19:40;8.07;;;1.05;;
59147;SDS011;44930;52.878;6.168;2024-02-23T01:22:07;11.93;;;1.30;;
59147;SDS011;44930;52.878;6.168;2024-02-23T01:24:33;6.85;;;1.85;;
59147;SDS011;44930;52.878;6.168;2024-02-23T01:26:58;14.35;;;2.10;;
59147;SDS011;44930;52.878;6.168;2024-02-23T01:29:24;10.90;;;1.88;;
59147;SDS011;44930;52.878;6.168;2024-02-23T01:31:51;11.85;;;2.58;;
59147;SDS011;44930;52.878;6.168;2024-02-23T01:34:17;10.68;;;1.83;;
59147;SDS011;44930;52.878;6.168;2024-02-23T01:36:43;14.80;;;3.40;;
59147;SDS011;44930;52.878;6.168;2024-02-23T01:39:09;20.45;;;4.43;;
59147;SDS011;44930;52.878;6.168;2024-02-23T01:41:36;11.10;;;2.45;;
59147;SDS011;44930;52.878;6.168;2024-02-23T01:44:02;18.77;;;2.60;;
59147;SDS011;44930;52.878;6.168;2024-02-23T01:46:27;20.48;;;2.58;;
59147;SDS011;44930;52.878;6.168;2024-02-23T01:48:54;14.48;;;3.15;;
59147;SDS011;44930;52.878;6.168;2024-02-23T01:51:19;10.93;;;2.35;;
59147;SDS011;44930;52.878;6.168;2024-02-23T01:53:45;14.93;;;1.95;;
59147;SDS011;44930;52.878;6.168;2024-02-23T01:56:11;14.27;;;2.35;;
59147;SDS011;44930;52.878;6.168;2024-02-23T01:58:42;18.58;;;2.65;;
59147;SDS011;44930;52.878;6.168;2024-02-23T02:01:12;16.50;;;4.68;;
59147;SDS011;44930;52.878;6.168;2024-02-23T02:03:38;7.45;;;2.00;;
59147;SDS011;44930;52.878;6.168;2024-02-23T02:06:09;6.70;;;1.88;;
59147;SDS011;44930;52.878;6.168;2024-02-23T02:08:35;11.38;;;1.35;;
59147;SDS011;44930;52.878;6.168;2024-02-23T02:11:01;13.05;;;1.95;;
59147;SDS011;44930;52.878;6.168;2024-02-23T02:13:30;12.43;;;2.05;;
59147;SDS011;44930;52.878;6.168;2024-02-23T02:16:00;8.20;;;1.90;;
59147;SDS011;44930;52.878;6.168;2024-02-23T02:18:27;3.38;;;0.82;;
59147;SDS011;44930;52.878;6.168;2024-02-23T02:20:56;12.20;;;1.88;;
59147;SDS011;44930;52.878;6.168;2024-02-23T02:23:23;9.07;;;1.80;;
59147;SDS011;44930;52.878;6.168;2024-02-23T02:25:55;10.55;;;2.88;;
59147;SDS011;44930;52.878;6.168;2024-02-23T02:28:22;4.22;;;1.15;;
59147;SDS011;44930;52.878;6.168;2024-02-23T02:30:49;6.55;;;1.35;;
59147;SDS011;44930;52.878;6.168;2024-02-23T02:33:15;12.15;;;2.88;;
59147;SDS011;44930;52.878;6.168;2024-02-23T02:35:41;11.95;;;1.63;;
59147;SDS011;44930;52.878;6.168;2024-02-23T02:38:07;16.20;;;2.92;;
59147;SDS011;44930;52.878;6.168;2024-02-23T02:40:33;8.43;;;1.30;;
59147;SDS011;44930;52.878;6.168;2024-02-23T02:42:58;9.75;;;2.55;;
59147;SDS011;44930;52.878;6.168;2024-02-23T02:45:24;7.75;;;1.30;;
59147;SDS011;44930;52.878;6.168;2024-02-23T02:47:50;13.70;;;1.77;;
59147;SDS011;44930;52.878;6.168;2024-02-23T02:50:15;13.23;;;1.15;;
59147;SDS011;44930;52.878;6.168;2024-02-23T02:52:41;12.57;;;1.75;;
59147;SDS011;44930;52.878;6.168;2024-02-23T02:55:07;14.55;;;1.98;;
59147;SDS011;44930;52.878;6.168;2024-02-23T02:57:33;11.02;;;2.88;;
59147;SDS011;44930;52.878;6.168;2024-02-23T03:00:01;18.73;;;1.92;;
59147;SDS011;44930;52.878;6.168;2024-02-23T03:02:47;8.00;;;2.05;;
59147;SDS011;44930;52.878;6.168;2024-02-23T03:05:13;8.65;;;1.70;;
59147;SDS011;44930;52.878;6.168;2024-02-23T03:07:38;12.57;;;1.40;;
59147;SDS011;44930;52.878;6.168;2024-02-23T03:10:04;6.78;;;1.30;;
59147;SDS011;44930;52.878;6.168;2024-02-23T03:12:30;12.50;;;2.00;;
59147;SDS011;44930;52.878;6.168;2024-02-23T03:14:56;9.23;;;1.58;;
59147;SDS011;44930;52.878;6.168;2024-02-23T03:17:21;8.45;;;1.35;;
59147;SDS011;44930;52.878;6.168;2024-02-23T03:19:48;8.73;;;1.60;;
59147;SDS011;44930;52.878;6.168;2024-02-23T03:22:15;7.82;;;1.40;;
59147;SDS011;44930;52.878;6.168;2024-02-23T03:24:41;9.98;;;1.33;;
59147;SDS011;44930;52.878;6.168;2024-02-23T03:27:08;11.13;;;2.13;;
59147;SDS011;44930;52.878;6.168;2024-02-23T03:29:35;11.65;;;1.40;;
59147;SDS011;44930;52.878;6.168;2024-02-23T03:32:00;11.18;;;3.60;;
59147;SDS011;44930;52.878;6.168;2024-02-23T03:34:26;5.50;;;1.63;;
59147;SDS011;44930;52.878;6.168;2024-02-23T03:36:52;13.07;;;1.70;;
59147;SDS011;44930;52.878;6.168;2024-02-23T03:39:18;9.50;;;1.75;;
59147;SDS011;44930;52.878;6.168;2024-02-23T03:41:43;6.32;;;1.52;;
59147;SDS011;44930;52.878;6.168;2024-02-23T03:44:09;11.98;;;2.25;;
59147;SDS011;44930;52.878;6.168;2024-02-23T03:46:34;14.07;;;2.30;;
59147;SDS011;44930;52.878;6.168;2024-02-23T03:49:00;8.20;;;1.48;;
59147;SDS011;44930;52.878;6.168;2024-02-23T03:51:26;10.45;;;1.67;;
59147;SDS011;44930;52.878;6.168;2024-02-23T03:53:52;6.88;;;1.50;;
59147;SDS011;44930;52.878;6.168;2024-02-23T03:56:17;12.18;;;2.08;;
59147;SDS011;44930;52.878;6.168;2024-02-23T03:58:43;6.68;;;1.10;;
59147;SDS011;44930;52.878;6.168;2024-02-23T04:01:09;10.68;;;1.60;;
59147;SDS011;44930;52.878;6.168;2024-02-23T04:03:34;7.45;;;1.83;;
59147;SDS011;44930;52.878;6.168;2024-02-23T04:06:00;6.72;;;1.42;;
59147;SDS011;44930;52.878;6.168;2024-02-23T04:08:26;13.85;;;1.92;;
59147;SDS011;44930;52.878;6.168;2024-02-23T04:10:52;7.07;;;1.40;;
59147;SDS011;44930;52.878;6.168;2024-02-23T04:13:17;10.55;;;2.60;;
59147;SDS011;44930;52.878;6.168;2024-02-23T04:15:43;6.78;;;1.38;;
59147;SDS011;44930;52.878;6.168;2024-02-23T04:18:09;9.70;;;1.90;;
59147;SDS011;44930;52.878;6.168;2024-02-23T04:20:35;16.10;;;2.03;;
59147;SDS011;44930;52.878;6.168;2024-02-23T04:23:00;10.48;;;1.52;;
59147;SDS011;44930;52.878;6.168;2024-02-23T04:25:26;14.88;;;1.90;;
59147;SDS011;44930;52.878;6.168;2024-02-23T04:27:51;10.32;;;1.67;;
59147;SDS011;44930;52.878;6.168;2024-02-23T04:30:17;9.40;;;1.70;;
59147;SDS011;44930;52.878;6.168;2024-02-23T04:32:43;8.93;;;1.58;;
59147;SDS011;44930;52.878;6.168;2024-02-23T04:35:09;9.07;;;1.60;;
59147;SDS011;44930;52.878;6.168;2024-02-23T04:37:35;9.52;;;1.48;;
59147;SDS011;44930;52.878;6.168;2024-02-23T04:40:01;11.52;;;1.92;;
59147;SDS011;44930;52.878;6.168;2024-02-23T04:42:27;10.52;;;1.98;;
59147;SDS011;44930;52.878;6.168;2024-02-23T04:44:52;15.63;;;1.80;;
59147;SDS011;44930;52.878;6.168;2024-02-23T04:47:20;6.60;;;1.20;;
59147;SDS011;44930;52.878;6.168;2024-02-23T04:49:45;11.23;;;2.33;;
59147;SDS011;44930;52.878;6.168;2024-02-23T04:52:11;11.25;;;2.13;;
59147;SDS011;44930;52.878;6.168;2024-02-23T04:54:37;7.75;;;1.23;;
59147;SDS011;44930;52.878;6.168;2024-02-23T04:57:03;5.82;;;1.27;;
59147;SDS011;44930;52.878;6.168;2024-02-23T04:59:29;14.23;;;2.92;;
59147;SDS011;44930;52.878;6.168;2024-02-23T05:01:56;9.50;;;2.22;;
59147;SDS011;44930;52.878;6.168;2024-02-23T05:04:22;9.82;;;2.30;;
59147;SDS011;44930;52.878;6.168;2024-02-23T05:06:48;8.85;;;2.28;;
59147;SDS011;44930;52.878;6.168;2024-02-23T05:09:13;12.30;;;2.63;;
59147;SDS011;44930;52.878;6.168;2024-02-23T05:11:39;9.23;;;2.30;;
59147;SDS011;44930;52.878;6.168;2024-02-23T05:14:05;11.38;;;2.28;;
59147;SDS011;44930;52.878;6.168;2024-02-23T05:16:31;15.23;;;2.90;;
59147;SDS011;44930;52.878;6.168;2024-02-23T05:18:57;9.00;;;2.50;;
59147;SDS011;44930;52.878;6.168;2024-02-23T05:21:22;11.57;;;2.92;;
59147;SDS011;44930;52.878;6.168;2024-02-23T05:23:48;12.07;;;3.45;;
59147;SDS011;44930;52.878;6.168;2024-02-23T05:26:14;9.52;;;3.40;;
59147;SDS011;44930;52.878;6.168;2024-02-23T05:28:40;9.98;;;3.50;;
59147;SDS011;44930;52.878;6.168;2024-02-23T05:31:05;14.13;;;4.20;;
59147;SDS011;44930;52.878;6.168;2024-02-23T05:33:31;14.07;;;4.40;;
59147;SDS011;44930;52.878;6.168;2024-02-23T05:35:57;13.77;;;4.70;;
59147;SDS011;44930;52.878;6.168;2024-02-23T05:38:23;13.27;;;4.88;;
59147;SDS011;44930;52.878;6.168;2024-02-23T05:40:48;14.27;;;5.00;;
59147;SDS011;44930;52.878;6.168;2024-02-23T05:43:14;15.40;;;4.78;;
59147;SDS011;44930;52.878;6.168;2024-02-23T05:45:39;9.75;;;4.50;;
59147;SDS011;44930;52.878;6.168;2024-02-23T05:48:05;9.95;;;4.03;;
59147;SDS011;44930;52.878;6.168;2024-02-23T05:50:32;15.02;;;4.68;;
59147;SDS011;44930;52.878;6.168;2024-02-23T05:52:57;12.27;;;4.78;;
59147;SDS011;44930;52.878;6.168;2024-02-23T05:55:23;10.10;;;4.25;;
59147;SDS011;44930;52.878;6.168;2024-02-23T05:57:49;8.90;;;4.55;;
59147;SDS011;44930;52.878;6.168;2024-02-23T06:00:16;10.73;;;4.60;;
59147;SDS011;44930;52.878;6.168;2024-02-23T06:02:44;8.95;;;4.40;;
59147;SDS011;44930;52.878;6.168;2024-02-23T06:05:11;17.05;;;5.43;;
59147;SDS011;44930;52.878;6.168;2024-02-23T06:07:37;10.52;;;5.13;;
59147;SDS011;44930;52.878;6.168;2024-02-23T06:10:03;18.88;;;7.50;;
59147;SDS011;44930;52.878;6.168;2024-02-23T06:12:30;12.10;;;5.35;;
59147;SDS011;44930;52.878;6.168;2024-02-23T06:14:55;11.57;;;5.05;;
59147;SDS011;44930;52.878;6.168;2024-02-23T06:17:22;11.68;;;4.78;;
59147;SDS011;44930;52.878;6.168;2024-02-23T06:19:48;15.38;;;6.18;;
59147;SDS011;44930;52.878;6.168;2024-02-23T06:22:14;12.95;;;5.18;;
59147;SDS011;44930;52.878;6.168;2024-02-23T06:24:42;13.63;;;5.53;;
59147;SDS011;44930;52.878;6.168;2024-02-23T06:27:08;15.07;;;6.10;;
59147;SDS011;44930;52.878;6.168;2024-02-23T06:29:34;14.82;;;6.85;;
59147;SDS011;44930;52.878;6.168;2024-02-23T06:32:00;12.07;;;5.68;;
59147;SDS011;44930;52.878;6.168;2024-02-23T06:34:28;14.63;;;6.57;;
59147;SDS011;44930;52.878;6.168;2024-02-23T06:36:53;19.33;;;6.30;;
59147;SDS011;44930;52.878;6.168;2024-02-23T06:39:19;17.23;;;6.20;;
59147;SDS011;44930;52.878;6.168;2024-02-23T06:41:45;14.85;;;5.63;;
59147;SDS011;44930;52.878;6.168;2024-02-23T06:44:11;11.75;;;5.57;;
59147;SDS011;44930;52.878;6.168;2024-02-23T06:46:36;19.95;;;6.47;;
59147;SDS011;44930;52.878;6.168;2024-02-23T06:49:02;16.67;;;6.20;;
59147;SDS011;44930;52.878;6.168;2024-02-23T06:51:30;8.68;;;4.70;;
59147;SDS011;44930;52.878;6.168;2024-02-23T06:53:56;15.95;;;6.05;;
59147;SDS011;44930;52.878;6.168;2024-02-23T06:56:22;10.55;;;5.25;;
59147;SDS011;44930;52.878;6.168;2024-02-23T06:58:47;11.50;;;5.63;;
59147;SDS011;44930;52.878;6.168;2024-02-23T07:01:13;13.73;;;5.55;;
59147;SDS011;44930;52.878;6.168;2024-02-23T07:03:39;10.38;;;5.10;;
59147;SDS011;44930;52.878;6.168;2024-02-23T07:06:07;10.68;;;4.95;;
59147;SDS011;44930;52.878;6.168;2024-02-23T07:08:35;15.13;;;4.90;;
59147;SDS011;44930;52.878;6.168;2024-02-23T07:11:01;9.55;;;4.20;;
59147;SDS011;44930;52.878;6.168;2024-02-23T07:13:26;10.60;;;4.70;;
59147;SDS011;44930;52.878;6.168;2024-02-23T07:15:52;10.40;;;4.35;;
59147;SDS011;44930;52.878;6.168;2024-02-23T07:18:17;12.60;;;4.63;;
59147;SDS011;44930;52.878;6.168;2024-02-23T07:20:43;12.77;;;5.00;;
59147;SDS011;44930;52.878;6.168;2024-02-23T07:23:09;9.93;;;4.82;;
59147;SDS011;44930;52.878;6.168;2024-02-23T07:25:35;11.32;;;5.07;;
59147;SDS011;44930;52.878;6.168;2024-02-23T07:28:00;7.63;;;4.57;;
59147;SDS011;44930;52.878;6.168;2024-02-23T07:30:26;11.68;;;4.70;;
59147;SDS011;44930;52.878;6.168;2024-02-23T07:32:52;12.75;;;6.07;;
59147;SDS011;44930;52.878;6.168;2024-02-23T07:35:17;14.88;;;6.85;;
59147;SDS011;44930;52.878;6.168;2024-02-23T07:37:43;9.13;;;4.63;;
59147;SDS011;44930;52.878;6.168;2024-02-23T07:40:08;10.10;;;5.63;;
59147;SDS011;44930;52.878;6.168;2024-02-23T07:42:34;8.27;;;4.57;;
59147;SDS011;44930;52.878;6.168;2024-02-23T07:45:04;12.18;;;5.18;;
59147;SDS011;44930;52.878;6.168;2024-02-23T07:47:30;10.70;;;4.20;;
59147;SDS011;44930;52.878;6.168;2024-02-23T07:49:56;8.55;;;4.05;;
59147;SDS011;44930;52.878;6.168;2024-02-23T07:52:22;9.63;;;4.32;;
59147;SDS011;44930;52.878;6.168;2024-02-23T07:54:49;6.85;;;3.88;;
59147;SDS011;44930;52.878;6.168;2024-02-23T07:57:18;11.40;;;3.42;;
59147;SDS011;44930;52.878;6.168;2024-02-23T07:59:44;9.18;;;3.25;;
59147;SDS011;44930;52.878;6.168;2024-02-23T08:02:10;12.43;;;3.83;;
59147;SDS011;44930;52.878;6.168;2024-02-23T08:04:35;8.73;;;3.60;;
59147;SDS011;44930;52.878;6.168;2024-02-23T08:07:01;10.38;;;3.60;;
59147;SDS011;44930;52.878;6.168;2024-02-23T08:09:27;5.30;;;2.58;;
59147;SDS011;44930;52.878;6.168;2024-02-23T08:11:53;13.07;;;3.10;;
59147;SDS011;44930;52.878;6.168;2024-02-23T08:14:18;6.57;;;2.55;;
59147;SDS011;44930;52.878;6.168;2024-02-23T08:16:44;6.00;;;2.55;;
59147;SDS011;44930;52.878;6.168;2024-02-23T08:19:09;16.05;;;2.13;;
59147;SDS011;44930;52.878;6.168;2024-02-23T08:21:35;7.10;;;1.90;;
59147;SDS011;44930;52.878;6.168;2024-02-23T08:24:01;9.55;;;1.67;;
59147;SDS011;44930;52.878;6.168;2024-02-23T08:26:27;8.90;;;2.10;;
59147;SDS011;44930;52.878;6.168;2024-02-23T08:28:53;5.47;;;1.90;;
59147;SDS011;44930;52.878;6.168;2024-02-23T08:31:19;6.20;;;1.92;;
59147;SDS011;44930;52.878;6.168;2024-02-23T08:33:44;11.23;;;2.92;;
59147;SDS011;44930;52.878;6.168;2024-02-23T08:36:12;7.75;;;1.98;;
59147;SDS011;44930;52.878;6.168;2024-02-23T08:38:37;9.73;;;1.83;;
59147;SDS011;44930;52.878;6.168;2024-02-23T08:41:03;5.65;;;1.80;;
59147;SDS011;44930;52.878;6.168;2024-02-23T08:43:29;7.00;;;1.88;;
59147;SDS011;44930;52.878;6.168;2024-02-23T08:45:55;5.93;;;2.00;;
59147;SDS011;44930;52.878;6.168;2024-02-23T08:48:20;11.18;;;2.05;;
59147;SDS011;44930;52.878;6.168;2024-02-23T08:50:46;7.80;;;3.08;;
59147;SDS011;44930;52.878;6.168;2024-02-23T08:53:12;9.32;;;1.90;;
59147;SDS011;44930;52.878;6.168;2024-02-23T08:55:37;5.57;;;1.40;;
59147;SDS011;44930;52.878;6.168;2024-02-23T08:58:03;9.13;;;2.00;;
59147;SDS011;44930;52.878;6.168;2024-02-23T09:00:30;8.73;;;2.30;;
59147;SDS011;44930;52.878;6.168;2024-02-23T09:02:56;5.10;;;1.70;;
59147;SDS011;44930;52.878;6.168;2024-02-23T09:05:22;8.98;;;2.10;;
59147;SDS011;44930;52.878;6.168;2024-02-23T09:07:48;9.23;;;2.30;;
59147;SDS011;44930;52.878;6.168;2024-02-23T09:10:13;9.13;;;1.92;;
59147;SDS011;44930;52.878;6.168;2024-02-23T09:12:39;9.23;;;2.00;;
59147;SDS011;44930;52.878;6.168;2024-02-23T09:15:05;6.22;;;1.48;;
59147;SDS011;44930;52.878;6.168;2024-02-23T09:17:31;7.20;;;2.20;;
59147;SDS011;44930;52.878;6.168;2024-02-23T09:19:56;2.65;;;1.08;;
59147;SDS011;44930;52.878;6.168;2024-02-23T09:22:22;8.18;;;1.67;;
59147;SDS011;44930;52.878;6.168;2024-02-23T09:24:48;10.10;;;2.03;;
59147;SDS011;44930;52.878;6.168;2024-02-23T09:27:14;5.28;;;1.38;;
59147;SDS011;44930;52.878;6.168;2024-02-23T09:29:40;6.20;;;1.40;;
59147;SDS011;44930;52.878;6.168;2024-02-23T09:32:09;9.38;;;1.85;;
59147;SDS011;44930;52.878;6.168;2024-02-23T09:34:34;8.23;;;1.65;;
59147;SDS011;44930;52.878;6.168;2024-02-23T09:37:00;6.97;;;1.50;;
59147;SDS011;44930;52.878;6.168;2024-02-23T09:39:26;9.48;;;1.83;;
59147;SDS011;44930;52.878;6.168;2024-02-23T09:41:55;6.80;;;2.80;;
59147;SDS011;44930;52.878;6.168;2024-02-23T09:44:22;5.20;;;1.48;;
59147;SDS011;44930;52.878;6.168;2024-02-23T09:46:48;7.63;;;1.67;;
59147;SDS011;44930;52.878;6.168;2024-02-23T09:49:14;11.25;;;2.13;;
59147;SDS011;44930;52.878;6.168;2024-02-23T09:51:43;6.30;;;1.88;;
59147;SDS011;44930;52.878;6.168;2024-02-23T09:54:10;12.73;;;3.00;;
59147;SDS011;44930;52.878;6.168;2024-02-23T09:56:35;8.27;;;2.03;;
59147;SDS011;44930;52.878;6.168;2024-02-23T09:59:02;4.72;;;1.70;;
59147;SDS011;44930;52.878;6.168;2024-02-23T10:01:30;10.40;;;1.92;;
59147;SDS011;44930;52.878;6.168;2024-02-23T10:03:58;6.28;;;1.77;;
59147;SDS011;44930;52.878;6.168;2024-02-23T10:06:26;7.03;;;1.65;;
59147;SDS011;44930;52.878;6.168;2024-02-23T10:08:52;6.45;;;1.65;;
59147;SDS011;44930;52.878;6.168;2024-02-23T10:11:21;4.57;;;1.20;;
59147;SDS011;44930;52.878;6.168;2024-02-23T10:13:50;6.43;;;1.45;;
59147;SDS011;44930;52.878;6.168;2024-02-23T10:16:19;9.23;;;1.98;;
59147;SDS011;44930;52.878;6.168;2024-02-23T10:18:46;11.77;;;1.77;;
59147;SDS011;44930;52.878;6.168;2024-02-23T10:21:18;5.35;;;1.70;;
59147;SDS011;44930;52.878;6.168;2024-02-23T10:23:44;4.13;;;1.15;;
59147;SDS011;44930;52.878;6.168;2024-02-23T10:26:10;8.43;;;1.00;;
59147;SDS011;44930;52.878;6.168;2024-02-23T10:28:39;8.25;;;1.40;;
59147;SDS011;44930;52.878;6.168;2024-02-23T10:31:05;7.38;;;1.30;;
59147;SDS011;44930;52.878;6.168;2024-02-23T10:33:31;4.85;;;1.45;;
59147;SDS011;44930;52.878;6.168;2024-02-23T10:35:57;5.50;;;1.20;;
59147;SDS011;44930;52.878;6.168;2024-02-23T10:38:23;6.97;;;1.40;;
59147;SDS011;44930;52.878;6.168;2024-02-23T10:40:51;4.88;;;1.23;;
59147;SDS011;44930;52.878;6.168;2024-02-23T10:43:20;6.05;;;1.95;;
59147;SDS011;44930;52.878;6.168;2024-02-23T10:46:08;7.95;;;1.45;;
59147;SDS011;44930;52.878;6.168;2024-02-23T10:48:38;8.20;;;1.60;;
59147;SDS011;44930;52.878;6.168;2024-02-23T10:51:05;9.27;;;1.25;;
59147;SDS011;44930;52.878;6.168;2024-02-23T10:53:32;9.00;;;1.42;;
59147;SDS011;44930;52.878;6.168;2024-02-23T10:56:00;3.78;;;1.10;;
59147;SDS011;44930;52.878;6.168;2024-02-23T10:58:26;7.50;;;1.27;;
59147;SDS011;44930;52.878;6.168;2024-02-23T11:00:52;7.82;;;1.83;;
59147;SDS011;44930;52.878;6.168;2024-02-23T11:03:25;8.80;;;1.38;;
59147;SDS011;44930;52.878;6.168;2024-02-23T11:05:53;6.07;;;2.05;;
59147;SDS011;44930;52.878;6.168;2024-02-23T11:08:19;7.32;;;1.85;;
59147;SDS011;44930;52.878;6.168;2024-02-23T11:10:51;4.78;;;1.52;;
59147;SDS011;44930;52.878;6.168;2024-02-23T11:13:17;8.30;;;1.40;;
59147;SDS011;44930;52.878;6.168;2024-02-23T11:15:43;8.07;;;1.65;;
59147;SDS011;44930;52.878;6.168;2024-02-23T11:18:22;8.73;;;1.60;;
59147;SDS011;44930;52.878;6.168;2024-02-23T11:20:54;12.25;;;1.55;;
59147;SDS011;44930;52.878;6.168;2024-02-23T11:23:22;7.32;;;1.35;;
59147;SDS011;44930;52.878;6.168;2024-02-23T11:28:29;5.60;;;1.42;;
59147;SDS011;44930;52.878;6.168;2024-02-23T11:30:55;7.70;;;1.45;;
59147;SDS011;44930;52.878;6.168;2024-02-23T11:33:55;8.35;;;2.40;;
59147;SDS011;44930;52.878;6.168;2024-02-23T11:36:21;7.68;;;2.33;;
59147;SDS011;44930;52.878;6.168;2024-02-23T11:39:13;5.60;;;1.52;;
59147;SDS011;44930;52.878;6.168;2024-02-23T11:41:39;6.18;;;1.90;;
59147;SDS011;44930;52.878;6.168;2024-02-23T11:44:06;4.82;;;1.35;;
59147;SDS011;44930;52.878;6.168;2024-02-23T11:46:32;6.90;;;1.55;;
59147;SDS011;44930;52.878;6.168;2024-02-23T11:48:57;5.88;;;1.40;;
59147;SDS011;44930;52.878;6.168;2024-02-23T11:51:25;6.57;;;1.55;;
59147;SDS011;44930;52.878;6.168;2024-02-23T11:53:54;5.80;;;1.80;;
59147;SDS011;44930;52.878;6.168;2024-02-23T11:56:25;7.28;;;1.40;;
59147;SDS011;44930;52.878;6.168;2024-02-23T11:58:51;6.28;;;1.60;;
59147;SDS011;44930;52.878;6.168;2024-02-23T12:01:18;3.83;;;1.27;;
59147;SDS011;44930;52.878;6.168;2024-02-23T12:03:44;5.63;;;1.10;;
59147;SDS011;44930;52.878;6.168;2024-02-23T12:06:10;5.57;;;1.50;;
59147;SDS011;44930;52.878;6.168;2024-02-23T12:08:36;5.75;;;1.10;;
59147;SDS011;44930;52.878;6.168;2024-02-23T12:11:03;9.05;;;1.92;;
59147;SDS011;44930;52.878;6.168;2024-02-23T12:13:33;4.57;;;1.27;;
59147;SDS011;44930;52.878;6.168;2024-02-23T12:16:00;8.77;;;2.85;;
59147;SDS011;44930;52.878;6.168;2024-02-23T12:18:26;6.53;;;1.48;;
59147;SDS011;44930;52.878;6.168;2024-02-23T12:20:52;5.90;;;1.30;;
59147;SDS011;44930;52.878;6.168;2024-02-23T12:23:18;13.15;;;2.58;;
59147;SDS011;44930;52.878;6.168;2024-02-23T12:25:56;5.65;;;1.30;;
59147;SDS011;44930;52.878;6.168;2024-02-23T12:28:22;4.65;;;1.60;;
59147;SDS011;44930;52.878;6.168;2024-02-23T12:30:58;8.68;;;1.55;;
59147;SDS011;44930;52.878;6.168;2024-02-23T12:33:26;7.40;;;1.58;;
59147;SDS011;44930;52.878;6.168;2024-02-23T12:35:54;4.32;;;1.38;;
59147;SDS011;44930;52.878;6.168;2024-02-23T12:38:21;5.25;;;1.60;;
59147;SDS011;44930;52.878;6.168;2024-02-23T12:40:47;7.63;;;1.67;;
59147;SDS011;44930;52.878;6.168;2024-02-23T12:43:12;6.60;;;1.50;;
59147;SDS011;44930;52.878;6.168;2024-02-23T12:45:38;5.32;;;1.67;;
59147;SDS011;44930;52.878;6.168;2024-02-23T12:48:04;5.95;;;1.55;;
59147;SDS011;44930;52.878;6.168;2024-02-23T12:50:30;7.05;;;1.92;;
59147;SDS011;44930;52.878;6.168;2024-02-23T12:52:56;4.50;;;1.55;;
59147;SDS011;44930;52.878;6.168;2024-02-23T12:55:22;5.22;;;1.50;;
59147;SDS011;44930;52.878;6.168;2024-02-23T12:57:48;4.50;;;1.60;;
59147;SDS011;44930;52.878;6.168;2024-02-23T13:00:14;7.05;;;1.60;;
59147;SDS011;44930;52.878;6.168;2024-02-23T13:02:41;4.03;;;1.60;;
59147;SDS011;44930;52.878;6.168;2024-02-23T13:05:07;6.15;;;1.48;;
59147;SDS011;44930;52.878;6.168;2024-02-23T13:07:33;4.47;;;1.67;;
59147;SDS011;44930;52.878;6.168;2024-02-23T13:09:58;4.82;;;1.48;;
59147;SDS011;44930;52.878;6.168;2024-02-23T13:12:24;3.00;;;1.40;;
59147;SDS011;44930;52.878;6.168;2024-02-23T13:14:53;4.47;;;1.30;;
59147;SDS011;44930;52.878;6.168;2024-02-23T13:17:19;3.92;;;1.33;;
59147;SDS011;44930;52.878;6.168;2024-02-23T13:19:45;7.05;;;2.95;;
59147;SDS011;44930;52.878;6.168;2024-02-23T13:22:10;13.02;;;1.58;;
59147;SDS011;44930;52.878;6.168;2024-02-23T13:24:36;6.50;;;1.40;;
59147;SDS011;44930;52.878;6.168;2024-02-23T13:27:04;11.15;;;2.67;;
59147;SDS011;44930;52.878;6.168;2024-02-23T13:29:30;6.82;;;1.58;;
59147;SDS011;44930;52.878;6.168;2024-02-23T13:31:56;5.57;;;1.75;;
59147;SDS011;44930;52.878;6.168;2024-02-23T13:34:21;6.35;;;1.58;;
59147;SDS011;44930;52.878;6.168;2024-02-23T13:36:47;6.60;;;1.92;;
59147;SDS011;44930;52.878;6.168;2024-02-23T13:39:14;6.68;;;1.83;;
59147;SDS011;44930;52.878;6.168;2024-02-23T13:41:40;7.30;;;1.50;;
59147;SDS011;44930;52.878;6.168;2024-02-23T13:44:06;6.82;;;2.05;;
59147;SDS011;44930;52.878;6.168;2024-02-23T13:46:35;5.55;;;1.60;;
59147;SDS011;44930;52.878;6.168;2024-02-23T13:49:02;4.50;;;1.65;;
59147;SDS011;44930;52.878;6.168;2024-02-23T13:51:32;3.65;;;1.13;;
59147;SDS011;44930;52.878;6.168;2024-02-23T13:53:58;6.15;;;1.60;;
59147;SDS011;44930;52.878;6.168;2024-02-23T13:56:24;5.95;;;1.73;;
59147;SDS011;44930;52.878;6.168;2024-02-23T13:58:50;8.20;;;1.55;;
59147;SDS011;44930;52.878;6.168;2024-02-23T14:01:15;3.28;;;1.52;;
59147;SDS011;44930;52.878;6.168;2024-02-23T14:03:41;6.35;;;1.50;;
59147;SDS011;44930;52.878;6.168;2024-02-23T14:06:07;5.75;;;2.08;;
59147;SDS011;44930;52.878;6.168;2024-02-23T14:08:34;4.25;;;1.60;;
59147;SDS011;44930;52.878;6.168;2024-02-23T14:11:02;4.40;;;1.83;;
59147;SDS011;44930;52.878;6.168;2024-02-23T14:13:30;6.47;;;1.40;;
59147;SDS011;44930;52.878;6.168;2024-02-23T14:15:57;7.30;;;1.55;;
59147;SDS011;44930;52.878;6.168;2024-02-23T14:18:23;3.20;;;1.67;;
59147;SDS011;44930;52.878;6.168;2024-02-23T14:20:48;5.50;;;1.75;;
59147;SDS011;44930;52.878;6.168;2024-02-23T14:23:14;7.05;;;1.73;;
59147;SDS011;44930;52.878;6.168;2024-02-23T14:25:40;7.85;;;2.58;;
59147;SDS011;44930;52.878;6.168;2024-02-23T14:28:06;8.27;;;1.67;;
59147;SDS011;44930;52.878;6.168;2024-02-23T14:30:31;6.00;;;1.40;;
59147;SDS011;44930;52.878;6.168;2024-02-23T14:32:57;5.40;;;2.03;;
59147;SDS011;44930;52.878;6.168;2024-02-23T14:35:22;6.20;;;1.48;;
59147;SDS011;44930;52.878;6.168;2024-02-23T14:37:48;7.25;;;1.58;;
59147;SDS011;44930;52.878;6.168;2024-02-23T14:40:14;4.55;;;1.50;;
59147;SDS011;44930;52.878;6.168;2024-02-23T14:42:40;6.43;;;1.27;;